createdAt,value
2022-12-02T00:01:22.915Z,7.60
2022-12-02T00:03:50.173Z,7.85
2022-12-02T00:06:28.733Z,6.65
2022-12-02T00:09:03.055Z,7.68
2022-12-02T00:11:31.592Z,7.45
2022-12-02T00:14:00.690Z,10.18
2022-12-02T00:16:27.777Z,8.95
2022-12-02T00:18:56.297Z,7.13
2022-12-02T00:21:24.216Z,7.45
2022-12-02T00:23:51.046Z,8.88
2022-12-02T00:26:18.012Z,7.57
2022-12-02T00:31:11.604Z,7.75
2022-12-02T00:33:38.445Z,6.68
2022-12-02T00:36:05.555Z,7.20
2022-12-02T00:38:32.321Z,6.38
2022-12-02T00:40:59.063Z,5.20
2022-12-02T00:43:44.363Z,5.80
2022-12-02T00:46:29.651Z,4.55
2022-12-02T00:48:56.460Z,6.03
2022-12-02T00:51:23.204Z,4.47
2022-12-02T00:53:50.025Z,5.38
2022-12-02T00:56:16.840Z,4.55
2022-12-02T00:58:43.651Z,4.28
2022-12-02T01:01:11.113Z,5.07
2022-12-02T01:03:42.534Z,3.88
2022-12-02T01:06:12.568Z,4.13
2022-12-02T01:11:06.571Z,4.63
2022-12-02T01:13:33.687Z,4.32
2022-12-02T01:16:00.796Z,3.80
2022-12-02T01:18:27.863Z,4.15
2022-12-02T01:23:21.251Z,4.55
2022-12-02T01:25:48.753Z,4.03
2022-12-02T01:28:18.934Z,4.28
2022-12-02T01:30:46.629Z,3.65
2022-12-02T01:33:13.609Z,4.47
2022-12-02T01:38:06.907Z,3.65
2022-12-02T01:40:34.065Z,4.40
2022-12-02T01:43:00.934Z,3.60
2022-12-02T01:45:28.099Z,3.88
2022-12-02T01:47:55.002Z,3.42
2022-12-02T01:50:21.990Z,3.80
2022-12-02T01:55:24.778Z,3.58
2022-12-02T01:57:52.354Z,6.95
2022-12-02T02:00:19.907Z,3.88
2022-12-02T02:02:47.025Z,3.70
2022-12-02T02:05:23.982Z,3.35
2022-12-02T02:07:53.881Z,3.65
2022-12-02T02:10:23.403Z,3.00
2022-12-02T02:12:51.644Z,2.90
2022-12-02T02:15:19.434Z,3.00
2022-12-02T02:17:46.795Z,3.10
2022-12-02T02:20:17.802Z,3.00
2022-12-02T02:22:53.753Z,2.97
2022-12-02T02:25:20.988Z,3.67
2022-12-02T02:27:55.087Z,2.70
2022-12-02T02:30:22.714Z,3.05
2022-12-02T02:32:50.697Z,2.63
2022-12-02T02:35:21.166Z,4.22
2022-12-02T02:37:50.524Z,2.90
2022-12-02T02:40:18.859Z,3.13
2022-12-02T02:42:49.685Z,2.83
2022-12-02T02:45:17.036Z,2.53
2022-12-02T02:47:43.771Z,2.88
2022-12-02T02:50:10.752Z,2.85
2022-12-02T02:55:06.184Z,2.83
2022-12-02T02:57:35.492Z,2.92
2022-12-02T03:00:02.790Z,3.05
2022-12-02T03:02:30.111Z,2.70
2022-12-02T03:04:56.974Z,2.85
2022-12-02T03:07:23.872Z,3.20
2022-12-02T03:09:51.259Z,4.43
2022-12-02T03:12:18.562Z,2.80
2022-12-02T03:14:46.109Z,2.60
2022-12-02T03:17:13.742Z,2.83
2022-12-02T03:19:42.234Z,3.17
2022-12-02T03:22:10.687Z,2.85
2022-12-02T03:24:38.148Z,2.80
2022-12-02T03:27:07.651Z,2.70
2022-12-02T03:29:34.890Z,3.33
2022-12-02T03:32:02.841Z,4.45
2022-12-02T03:34:30.223Z,3.20
2022-12-02T03:36:58.425Z,2.78
2022-12-02T03:39:25.604Z,3.78
2022-12-02T03:41:52.578Z,2.88
2022-12-02T03:46:48.143Z,2.92
2022-12-02T03:49:17.313Z,3.08
2022-12-02T03:51:44.404Z,2.67
2022-12-02T03:54:12.963Z,2.80
2022-12-02T03:56:42.145Z,3.20
2022-12-02T03:59:10.946Z,4.85
2022-12-02T04:01:37.845Z,2.70
2022-12-02T04:06:31.740Z,2.92
2022-12-02T04:08:58.835Z,2.80
2022-12-02T04:11:25.670Z,2.80
2022-12-02T04:13:52.526Z,3.30
2022-12-02T04:16:19.262Z,3.60
2022-12-02T04:18:46.109Z,4.05
2022-12-02T04:21:12.816Z,3.35
2022-12-02T04:23:39.559Z,2.72
2022-12-02T04:26:06.519Z,4.20
2022-12-02T04:31:00.337Z,3.00
2022-12-02T04:33:27.177Z,3.05
2022-12-02T04:35:53.904Z,3.20
2022-12-02T04:38:20.592Z,3.00
2022-12-02T04:40:47.405Z,3.53
2022-12-02T04:43:14.189Z,3.00
2022-12-02T04:45:40.941Z,3.10
2022-12-02T04:48:07.815Z,3.40
2022-12-02T04:50:34.612Z,4.00
2022-12-02T04:53:01.434Z,3.30
2022-12-02T04:55:28.359Z,3.58
2022-12-02T04:57:55.117Z,2.88
2022-12-02T05:00:22.584Z,2.72
2022-12-02T05:02:49.452Z,3.28
2022-12-02T05:05:16.327Z,3.97
2022-12-02T05:07:43.236Z,4.35
2022-12-02T05:12:37.019Z,5.55
2022-12-02T05:15:03.896Z,4.10
2022-12-02T05:17:31.011Z,10.40
2022-12-02T05:19:57.979Z,3.13
2022-12-02T05:24:51.657Z,5.22
2022-12-02T05:27:18.781Z,2.70
2022-12-02T05:29:45.571Z,3.53
2022-12-02T05:32:12.353Z,3.63
2022-12-02T05:34:39.165Z,2.97
2022-12-02T05:37:05.960Z,4.60
2022-12-02T05:39:32.843Z,3.40
2022-12-02T05:42:02.594Z,2.72
2022-12-02T05:44:33.758Z,3.13
2022-12-02T05:47:09.886Z,2.85
2022-12-02T05:49:37.863Z,3.10
2022-12-02T05:52:34.418Z,3.92
2022-12-02T05:55:11.497Z,2.90
2022-12-02T05:57:38.292Z,3.65
2022-12-02T06:00:21.781Z,3.20
2022-12-02T06:02:52.571Z,3.03
2022-12-02T06:05:29.334Z,5.63
2022-12-02T06:07:59.290Z,4.22
2022-12-02T06:10:29.052Z,5.10
2022-12-02T06:13:14.218Z,4.32
2022-12-02T06:15:41.183Z,5.28
2022-12-02T06:20:40.459Z,4.55
2022-12-02T06:23:12.699Z,5.22
2022-12-02T06:25:39.560Z,6.68
2022-12-02T06:28:22.788Z,5.57
2022-12-02T06:30:50.081Z,3.22
2022-12-02T06:33:30.304Z,5.13
2022-12-02T06:35:59.362Z,3.83
2022-12-02T06:38:39.332Z,9.65
2022-12-02T06:41:27.351Z,4.65
2022-12-02T06:44:20.802Z,5.28
2022-12-02T06:46:47.631Z,3.88
2022-12-02T06:49:30.559Z,4.78
2022-12-02T06:52:00.763Z,4.30
2022-12-02T06:54:30.574Z,8.18
2022-12-02T06:56:59.392Z,4.95
2022-12-02T06:59:27.190Z,5.93
2022-12-02T07:01:57.272Z,6.47
2022-12-02T07:04:48.118Z,5.75
2022-12-02T07:07:22.316Z,5.13
2022-12-02T07:09:59.224Z,4.32
2022-12-02T07:12:36.303Z,4.20
2022-12-02T07:15:28.995Z,4.40
2022-12-02T07:18:18.625Z,7.13
2022-12-02T07:20:46.653Z,8.15
2022-12-02T07:23:25.825Z,13.27
2022-12-02T07:25:54.812Z,3.90
2022-12-02T07:28:40.037Z,5.57
2022-12-02T07:31:27.942Z,3.60
2022-12-02T07:33:55.071Z,7.30
2022-12-02T07:36:21.976Z,5.57
2022-12-02T07:39:06.276Z,4.40
2022-12-02T07:41:36.738Z,4.30
2022-12-02T07:44:04.730Z,3.70
2022-12-02T07:46:31.656Z,5.05
2022-12-02T07:51:25.866Z,4.82
2022-12-02T07:53:52.778Z,6.13
2022-12-02T07:56:19.588Z,8.88
2022-12-02T07:59:11.405Z,29.33
2022-12-02T08:01:33.388Z,11.02
2022-12-02T08:06:26.897Z,25.30
2022-12-02T08:08:53.717Z,10.38
2022-12-02T08:11:20.523Z,20.60
2022-12-02T08:13:47.288Z,13.02
2022-12-02T08:16:14.035Z,39.30
2022-12-02T08:18:40.962Z,36.90
2022-12-02T08:23:36.933Z,21.55
2022-12-02T08:26:04.164Z,14.27
2022-12-02T08:28:31.002Z,8.80
2022-12-02T08:30:57.876Z,6.10
2022-12-02T08:35:51.704Z,6.20
2022-12-02T08:40:45.492Z,5.50
2022-12-02T08:43:15.089Z,8.75
2022-12-02T08:45:41.870Z,6.07
2022-12-02T08:48:08.666Z,4.88
2022-12-02T08:50:35.479Z,6.07
2022-12-02T08:53:02.408Z,3.83
2022-12-02T08:57:56.049Z,7.50
2022-12-02T09:00:23.475Z,7.50
2022-12-02T09:02:50.791Z,11.70
2022-12-02T09:05:18.125Z,5.53
2022-12-02T09:07:44.979Z,7.28
2022-12-02T09:12:39.543Z,5.65
2022-12-02T09:15:06.826Z,5.82
2022-12-02T09:17:33.855Z,5.32
2022-12-02T09:20:00.649Z,4.82
2022-12-02T09:22:27.443Z,7.97
2022-12-02T09:24:54.570Z,5.07
2022-12-02T09:27:21.416Z,5.70
2022-12-02T09:29:48.171Z,4.07
2022-12-02T09:32:14.901Z,5.18
2022-12-02T09:34:41.731Z,4.78
2022-12-02T09:37:08.716Z,3.50
2022-12-02T09:42:07.765Z,7.60
2022-12-02T09:44:34.851Z,5.15
2022-12-02T09:47:01.707Z,15.93
2022-12-02T09:52:01.440Z,4.45
2022-12-02T09:54:28.396Z,4.80
2022-12-02T09:59:22.918Z,17.02
2022-12-02T10:01:50.511Z,21.27
2022-12-02T10:04:20.901Z,16.05
2022-12-02T10:06:48.352Z,18.27
2022-12-02T10:09:30.487Z,20.15
2022-12-02T10:11:57.474Z,17.83
2022-12-02T10:16:53.280Z,12.10
2022-12-02T10:19:20.846Z,21.55
2022-12-02T10:21:50.132Z,17.80
2022-12-02T10:24:37.565Z,19.25
2022-12-02T10:27:04.627Z,16.90
2022-12-02T10:29:32.702Z,17.92
2022-12-02T10:32:21.532Z,16.92
2022-12-02T10:35:05.514Z,22.13
2022-12-02T10:37:34.416Z,15.13
2022-12-02T10:40:09.920Z,14.90
2022-12-02T10:42:36.657Z,18.27
2022-12-02T10:45:23.840Z,13.13
2022-12-02T10:48:10.217Z,13.15
2022-12-02T10:50:36.964Z,13.52
2022-12-02T10:53:13.241Z,12.57
2022-12-02T10:55:40.264Z,12.88
2022-12-02T11:00:43.679Z,14.02
2022-12-02T11:05:40.737Z,11.75
2022-12-02T11:08:20.131Z,13.45
2022-12-02T11:10:49.794Z,9.73
2022-12-02T11:13:55.833Z,12.70
2022-12-02T11:16:28.494Z,9.98
2022-12-02T11:18:58.491Z,9.93
2022-12-02T11:21:28.441Z,7.38
2022-12-02T11:24:23.957Z,7.63
2022-12-02T11:26:59.771Z,7.15
2022-12-02T11:29:39.760Z,6.90
2022-12-02T11:32:21.779Z,9.20
2022-12-02T11:35:16.394Z,7.65
2022-12-02T11:37:44.662Z,8.90
2022-12-02T11:40:11.432Z,7.82
2022-12-02T11:42:39.645Z,9.98
2022-12-02T11:45:15.626Z,9.05
2022-12-02T11:47:44.042Z,11.80
2022-12-02T11:50:16.685Z,10.88
2022-12-02T11:52:49.797Z,7.80
2022-12-02T11:55:20.850Z,12.13
2022-12-02T11:57:57.174Z,9.45
2022-12-02T12:00:37.491Z,12.32
2022-12-02T12:03:07.792Z,10.95
2022-12-02T12:05:35.085Z,12.35
2022-12-02T12:08:03.502Z,13.25
2022-12-02T12:10:35.118Z,13.38
2022-12-02T12:13:24.203Z,15.23
2022-12-02T12:16:02.019Z,14.65
2022-12-02T12:18:48.567Z,14.40
2022-12-02T12:21:42.094Z,15.23
2022-12-02T12:24:21.451Z,12.90
2022-12-02T12:26:55.449Z,13.07
2022-12-02T12:29:24.788Z,12.57
2022-12-02T12:31:51.824Z,12.95
2022-12-02T12:36:46.859Z,13.52
2022-12-02T12:39:14.578Z,16.88
2022-12-02T12:44:31.175Z,15.65
2022-12-02T12:47:00.416Z,15.15
2022-12-02T12:49:27.634Z,12.65
2022-12-02T12:51:54.569Z,13.93
2022-12-02T12:54:21.394Z,10.85
2022-12-02T12:56:48.205Z,12.43
2022-12-02T12:59:15.213Z,12.65
2022-12-02T13:04:10.937Z,13.02
2022-12-02T13:06:42.444Z,13.95
2022-12-02T13:09:11.114Z,12.63
2022-12-02T13:11:37.869Z,13.50
2022-12-02T13:14:05.210Z,11.88
2022-12-02T13:16:32.513Z,7.72
2022-12-02T13:18:59.564Z,6.30
2022-12-02T13:23:53.150Z,5.07
2022-12-02T13:26:20.140Z,5.13
2022-12-02T13:28:47.162Z,5.05
2022-12-02T13:33:40.906Z,5.70
2022-12-02T13:36:08.110Z,7.38
2022-12-02T13:38:35.048Z,9.50
2022-12-02T13:43:28.547Z,6.00
2022-12-02T13:45:55.344Z,5.68
2022-12-02T13:50:48.905Z,5.65
2022-12-02T13:53:15.596Z,5.35
2022-12-02T13:55:42.322Z,11.82
2022-12-02T13:58:09.061Z,12.15
2022-12-02T14:00:35.837Z,15.30
2022-12-02T14:03:02.590Z,8.05
2022-12-02T14:05:29.359Z,6.38
2022-12-02T14:07:57.598Z,6.22
2022-12-02T14:10:24.388Z,4.95
2022-12-02T14:12:51.403Z,8.00
2022-12-02T14:15:18.209Z,9.85
2022-12-02T14:17:44.990Z,7.75
2022-12-02T14:20:12.163Z,8.05
2022-12-02T14:22:39.456Z,4.65
2022-12-02T14:25:06.756Z,4.78
2022-12-02T14:27:33.516Z,4.35
2022-12-02T14:30:01.277Z,7.05
2022-12-02T14:32:28.401Z,8.68
2022-12-02T14:34:55.501Z,7.47
2022-12-02T14:37:22.499Z,5.78
2022-12-02T14:39:50.357Z,6.35
2022-12-02T14:42:17.319Z,6.47
2022-12-02T14:44:44.141Z,5.95
2022-12-02T14:47:11.071Z,6.13
2022-12-02T14:52:07.791Z,5.03
2022-12-02T14:54:35.660Z,12.65
2022-12-02T14:57:03.175Z,11.98
2022-12-02T14:59:31.156Z,6.47
2022-12-02T15:01:59.636Z,5.90
2022-12-02T15:04:28.716Z,4.10
2022-12-02T15:06:55.979Z,5.68
2022-12-02T15:11:51.143Z,7.38
2022-12-02T15:14:18.627Z,4.63
2022-12-02T15:16:45.572Z,8.48
2022-12-02T15:21:40.691Z,3.15
2022-12-02T15:24:07.863Z,5.40
2022-12-02T15:26:34.955Z,6.65
2022-12-02T15:29:02.063Z,8.68
2022-12-02T15:31:29.079Z,4.13
2022-12-02T15:33:57.269Z,8.65
2022-12-02T15:36:24.417Z,12.23
2022-12-02T15:41:17.999Z,13.88
2022-12-02T15:43:48.708Z,12.63
2022-12-02T15:46:19.932Z,13.55
2022-12-02T15:48:46.723Z,13.43
2022-12-02T15:51:14.800Z,17.25
2022-12-02T15:53:43.192Z,14.10
2022-12-02T15:56:10.261Z,13.95
2022-12-02T15:58:38.296Z,13.55
2022-12-02T16:01:05.857Z,14.65
2022-12-02T16:03:33.434Z,15.98
2022-12-02T16:06:00.532Z,14.35
2022-12-02T16:10:55.250Z,17.10
2022-12-02T16:13:22.250Z,17.25
2022-12-02T16:15:50.429Z,16.33
2022-12-02T16:18:18.663Z,17.65
2022-12-02T16:20:47.575Z,15.05
2022-12-02T16:23:16.974Z,14.90
2022-12-02T16:25:43.792Z,15.73
2022-12-02T16:28:10.735Z,16.55
2022-12-02T16:30:37.565Z,15.55
2022-12-02T16:33:04.263Z,17.90
2022-12-02T16:35:31.519Z,17.75
2022-12-02T16:38:04.112Z,15.15
2022-12-02T16:40:31.417Z,22.40
2022-12-02T16:42:59.507Z,18.65
2022-12-02T16:45:26.626Z,20.77
2022-12-02T16:47:53.453Z,19.77
2022-12-02T16:50:21.308Z,16.98
2022-12-02T16:52:48.399Z,17.95
2022-12-02T16:57:43.127Z,15.90
2022-12-02T17:00:10.718Z,15.95
2022-12-02T17:02:37.619Z,17.33
2022-12-02T17:05:04.603Z,17.38
2022-12-02T17:09:58.961Z,17.25
2022-12-02T17:12:26.119Z,17.25
2022-12-02T17:14:55.168Z,16.85
2022-12-02T17:17:44.875Z,18.73
2022-12-02T17:20:10.258Z,19.92
2022-12-02T17:22:37.590Z,20.83
2022-12-02T17:25:05.501Z,22.60
2022-12-02T17:27:33.452Z,25.00
2022-12-02T17:30:00.721Z,24.48
2022-12-02T17:32:27.520Z,27.17
2022-12-02T17:34:54.662Z,23.80
2022-12-02T17:37:21.522Z,25.08
2022-12-02T17:39:48.302Z,25.13
2022-12-02T17:42:15.651Z,24.88
2022-12-02T17:44:43.375Z,24.73
2022-12-02T17:47:10.563Z,24.98
2022-12-02T17:52:19.592Z,21.80
2022-12-02T17:54:47.239Z,26.25
2022-12-02T17:57:14.125Z,26.20
2022-12-02T17:59:41.185Z,22.52
2022-12-02T18:02:11.342Z,25.48
2022-12-02T18:04:44.083Z,27.25
2022-12-02T18:07:12.177Z,27.67
2022-12-02T18:09:39.955Z,23.40
2022-12-02T18:12:07.965Z,26.58
2022-12-02T18:14:34.832Z,25.33
2022-12-02T18:17:02.023Z,25.05
2022-12-02T18:19:28.832Z,21.77
2022-12-02T18:21:55.722Z,20.45
2022-12-02T18:24:23.192Z,25.60
2022-12-02T18:26:50.372Z,23.83
2022-12-02T18:29:18.363Z,19.88
2022-12-02T18:31:45.391Z,21.92
2022-12-02T18:34:13.237Z,19.75
2022-12-02T18:36:40.296Z,21.70
2022-12-02T18:39:08.171Z,20.45
2022-12-02T18:41:36.212Z,22.58
2022-12-02T18:44:04.339Z,22.38
2022-12-02T18:46:31.371Z,24.42
2022-12-02T18:48:59.341Z,25.13
2022-12-02T18:51:27.700Z,26.40
2022-12-02T18:53:55.940Z,26.27
2022-12-02T18:56:24.597Z,22.30
2022-12-02T18:58:55.279Z,21.80
2022-12-02T19:01:22.698Z,21.42
2022-12-02T19:03:49.827Z,21.90
2022-12-02T19:08:46.114Z,21.33
2022-12-02T19:11:13.082Z,22.27
2022-12-02T19:13:40.094Z,26.08
2022-12-02T19:18:34.202Z,19.48
2022-12-02T19:21:04.073Z,21.92
2022-12-02T19:23:31.147Z,14.45
2022-12-02T19:28:25.474Z,18.00
2022-12-02T19:33:19.255Z,16.80
2022-12-02T19:35:46.172Z,16.60
2022-12-02T19:38:15.617Z,19.52
2022-12-02T19:40:45.477Z,19.67
2022-12-02T19:43:13.538Z,21.48
2022-12-02T19:45:40.571Z,18.60
2022-12-02T19:50:35.004Z,16.08
2022-12-02T19:53:01.996Z,17.08
2022-12-02T19:57:55.608Z,18.00
2022-12-02T20:00:22.471Z,18.10
2022-12-02T20:02:49.505Z,15.02
2022-12-02T20:05:21.161Z,16.27
2022-12-02T20:07:48.855Z,16.80
2022-12-02T20:10:16.263Z,16.95
2022-12-02T20:12:43.336Z,20.08
2022-12-02T20:17:37.275Z,22.90
2022-12-02T20:20:08.822Z,17.38
2022-12-02T20:22:35.799Z,20.75
2022-12-02T20:25:02.617Z,19.30
2022-12-02T20:27:29.456Z,23.27
2022-12-02T20:29:56.255Z,25.25
2022-12-02T20:32:23.222Z,24.67
2022-12-02T20:34:50.051Z,21.02
2022-12-02T20:37:17.057Z,26.20
2022-12-02T20:39:43.928Z,25.52
2022-12-02T20:42:10.909Z,27.08
2022-12-02T20:47:04.556Z,22.33
2022-12-02T20:49:31.384Z,23.15
2022-12-02T20:51:58.077Z,25.52
2022-12-02T20:54:26.062Z,23.77
2022-12-02T20:56:52.842Z,19.35
2022-12-02T20:59:19.749Z,22.15
2022-12-02T21:01:46.601Z,20.25
2022-12-02T21:04:13.385Z,20.63
2022-12-02T21:06:40.143Z,18.67
2022-12-02T21:09:06.932Z,18.65
2022-12-02T21:11:33.702Z,19.15
2022-12-02T21:14:00.479Z,18.58
2022-12-02T21:16:27.364Z,16.33
2022-12-02T21:18:54.267Z,16.90
2022-12-02T21:21:21.121Z,20.05
2022-12-02T21:23:49.418Z,19.52
2022-12-02T21:26:16.060Z,18.00
2022-12-02T21:28:42.825Z,19.88
2022-12-02T21:31:09.640Z,22.10
2022-12-02T21:33:36.430Z,22.63
2022-12-02T21:36:03.391Z,23.67
2022-12-02T21:40:57.767Z,25.98
2022-12-02T21:43:25.153Z,26.40
